sensor_id;sensor_type;location;lat;lon;timestamp;P1;durP1;ratioP1;P2;durP2;ratioP2
19741;SDS011;10028;48.822;11.854;2023-07-31T00:02:03;1.70;;;1.70;;
19741;SDS011;10028;48.822;11.854;2023-07-31T00:04:30;1.40;;;1.40;;
19741;SDS011;10028;48.822;11.854;2023-07-31T00:06:58;1.70;;;1.63;;
19741;SDS011;10028;48.822;11.854;2023-07-31T00:09:25;1.33;;;1.33;;
19741;SDS011;10028;48.822;11.854;2023-07-31T00:11:52;1.60;;;1.60;;
19741;SDS011;10028;48.822;11.854;2023-07-31T00:14:19;1.37;;;1.37;;
19741;SDS011;10028;48.822;11.854;2023-07-31T00:16:47;1.30;;;1.30;;
19741;SDS011;10028;48.822;11.854;2023-07-31T00:19:17;1.70;;;1.70;;
19741;SDS011;10028;48.822;11.854;2023-07-31T00:21:44;1.40;;;1.40;;
19741;SDS011;10028;48.822;11.854;2023-07-31T00:24:12;1.70;;;1.70;;
19741;SDS011;10028;48.822;11.854;2023-07-31T00:26:39;1.80;;;1.80;;
19741;SDS011;10028;48.822;11.854;2023-07-31T00:29:07;1.33;;;1.33;;
19741;SDS011;10028;48.822;11.854;2023-07-31T00:31:34;1.53;;;1.53;;
19741;SDS011;10028;48.822;11.854;2023-07-31T00:34:01;1.40;;;1.40;;
19741;SDS011;10028;48.822;11.854;2023-07-31T00:36:28;1.70;;;1.70;;
19741;SDS011;10028;48.822;11.854;2023-07-31T00:38:56;2.30;;;2.20;;
19741;SDS011;10028;48.822;11.854;2023-07-31T00:41:23;1.40;;;1.40;;
19741;SDS011;10028;48.822;11.854;2023-07-31T00:43:51;2.50;;;2.40;;
19741;SDS011;10028;48.822;11.854;2023-07-31T00:46:18;1.33;;;1.33;;
19741;SDS011;10028;48.822;11.854;2023-07-31T00:48:45;1.40;;;1.40;;
19741;SDS011;10028;48.822;11.854;2023-07-31T00:51:13;1.67;;;1.67;;
19741;SDS011;10028;48.822;11.854;2023-07-31T00:53:40;1.70;;;1.70;;
19741;SDS011;10028;48.822;11.854;2023-07-31T00:56:09;1.53;;;1.53;;
19741;SDS011;10028;48.822;11.854;2023-07-31T00:58:37;1.50;;;1.50;;
19741;SDS011;10028;48.822;11.854;2023-07-31T01:01:04;1.30;;;1.30;;
19741;SDS011;10028;48.822;11.854;2023-07-31T01:03:32;1.60;;;1.60;;
19741;SDS011;10028;48.822;11.854;2023-07-31T01:11:52;1.60;;;1.60;;
19741;SDS011;10028;48.822;11.854;2023-07-31T01:14:22;1.67;;;1.67;;
19741;SDS011;10028;48.822;11.854;2023-07-31T01:16:49;1.70;;;1.70;;
19741;SDS011;10028;48.822;11.854;2023-07-31T01:19:18;1.50;;;1.50;;
19741;SDS011;10028;48.822;11.854;2023-07-31T01:25:09;1.50;;;1.50;;
19741;SDS011;10028;48.822;11.854;2023-07-31T01:28:03;1.60;;;1.60;;
19741;SDS011;10028;48.822;11.854;2023-07-31T01:30:34;1.70;;;1.70;;
19741;SDS011;10028;48.822;11.854;2023-07-31T01:33:07;1.90;;;1.87;;
19741;SDS011;10028;48.822;11.854;2023-07-31T01:35:35;1.57;;;1.57;;
19741;SDS011;10028;48.822;11.854;2023-07-31T01:38:04;1.87;;;1.87;;
19741;SDS011;10028;48.822;11.854;2023-07-31T01:40:31;1.50;;;1.50;;
19741;SDS011;10028;48.822;11.854;2023-07-31T01:42:59;1.70;;;1.70;;
19741;SDS011;10028;48.822;11.854;2023-07-31T01:45:26;1.40;;;1.40;;
19741;SDS011;10028;48.822;11.854;2023-07-31T01:47:53;1.53;;;1.53;;
19741;SDS011;10028;48.822;11.854;2023-07-31T01:50:20;1.47;;;1.47;;
19741;SDS011;10028;48.822;11.854;2023-07-31T01:52:48;1.53;;;1.53;;
19741;SDS011;10028;48.822;11.854;2023-07-31T01:55:15;1.70;;;1.70;;
19741;SDS011;10028;48.822;11.854;2023-07-31T01:57:42;1.63;;;1.63;;
19741;SDS011;10028;48.822;11.854;2023-07-31T02:00:10;1.80;;;1.80;;
19741;SDS011;10028;48.822;11.854;2023-07-31T02:02:37;1.97;;;1.97;;
19741;SDS011;10028;48.822;11.854;2023-07-31T02:05:04;1.30;;;1.30;;
19741;SDS011;10028;48.822;11.854;2023-07-31T02:07:31;1.70;;;1.70;;
19741;SDS011;10028;48.822;11.854;2023-07-31T02:09:59;1.53;;;1.53;;
19741;SDS011;10028;48.822;11.854;2023-07-31T02:12:26;1.47;;;1.47;;
19741;SDS011;10028;48.822;11.854;2023-07-31T02:14:56;1.70;;;1.70;;
19741;SDS011;10028;48.822;11.854;2023-07-31T02:17:24;1.27;;;1.27;;
19741;SDS011;10028;48.822;11.854;2023-07-31T02:19:51;3.90;;;2.33;;
19741;SDS011;10028;48.822;11.854;2023-07-31T02:22:18;1.73;;;1.73;;
19741;SDS011;10028;48.822;11.854;2023-07-31T02:24:46;1.63;;;1.63;;
19741;SDS011;10028;48.822;11.854;2023-07-31T02:27:13;3.03;;;2.70;;
19741;SDS011;10028;48.822;11.854;2023-07-31T02:29:40;1.87;;;1.87;;
19741;SDS011;10028;48.822;11.854;2023-07-31T02:32:07;1.50;;;1.50;;
19741;SDS011;10028;48.822;11.854;2023-07-31T02:34:35;1.83;;;1.83;;
19741;SDS011;10028;48.822;11.854;2023-07-31T02:37:02;1.30;;;1.30;;
19741;SDS011;10028;48.822;11.854;2023-07-31T02:39:29;1.50;;;1.50;;
19741;SDS011;10028;48.822;11.854;2023-07-31T02:41:57;1.33;;;1.33;;
19741;SDS011;10028;48.822;11.854;2023-07-31T02:44:24;1.47;;;1.47;;
19741;SDS011;10028;48.822;11.854;2023-07-31T02:46:51;1.50;;;1.50;;
19741;SDS011;10028;48.822;11.854;2023-07-31T02:49:18;1.47;;;1.47;;
19741;SDS011;10028;48.822;11.854;2023-07-31T02:51:46;1.63;;;1.63;;
19741;SDS011;10028;48.822;11.854;2023-07-31T02:54:13;1.70;;;1.70;;
19741;SDS011;10028;48.822;11.854;2023-07-31T02:56:40;1.53;;;1.53;;
19741;SDS011;10028;48.822;11.854;2023-07-31T02:59:08;1.60;;;1.60;;
19741;SDS011;10028;48.822;11.854;2023-07-31T03:01:35;1.60;;;1.60;;
19741;SDS011;10028;48.822;11.854;2023-07-31T03:04:02;1.60;;;1.60;;
19741;SDS011;10028;48.822;11.854;2023-07-31T03:06:30;1.60;;;1.60;;
19741;SDS011;10028;48.822;11.854;2023-07-31T03:08:57;1.50;;;1.50;;
19741;SDS011;10028;48.822;11.854;2023-07-31T03:11:25;1.63;;;1.60;;
19741;SDS011;10028;48.822;11.854;2023-07-31T03:13:52;1.87;;;1.87;;
19741;SDS011;10028;48.822;11.854;2023-07-31T03:16:20;1.70;;;1.70;;
19741;SDS011;10028;48.822;11.854;2023-07-31T03:18:47;1.67;;;1.67;;
19741;SDS011;10028;48.822;11.854;2023-07-31T03:21:14;1.33;;;1.33;;
19741;SDS011;10028;48.822;11.854;2023-07-31T03:23:42;1.50;;;1.50;;
19741;SDS011;10028;48.822;11.854;2023-07-31T03:26:09;1.80;;;1.80;;
19741;SDS011;10028;48.822;11.854;2023-07-31T03:28:37;1.50;;;1.50;;
19741;SDS011;10028;48.822;11.854;2023-07-31T03:31:04;1.40;;;1.40;;
19741;SDS011;10028;48.822;11.854;2023-07-31T03:33:32;1.80;;;1.80;;
19741;SDS011;10028;48.822;11.854;2023-07-31T03:35:59;1.50;;;1.50;;
19741;SDS011;10028;48.822;11.854;2023-07-31T03:38:26;1.47;;;1.47;;
19741;SDS011;10028;48.822;11.854;2023-07-31T03:40:53;1.50;;;1.50;;
19741;SDS011;10028;48.822;11.854;2023-07-31T03:43:21;1.77;;;1.77;;
19741;SDS011;10028;48.822;11.854;2023-07-31T03:45:48;1.40;;;1.40;;
19741;SDS011;10028;48.822;11.854;2023-07-31T03:48:15;1.60;;;1.60;;
19741;SDS011;10028;48.822;11.854;2023-07-31T03:50:42;1.67;;;1.67;;
19741;SDS011;10028;48.822;11.854;2023-07-31T03:53:10;1.80;;;1.80;;
19741;SDS011;10028;48.822;11.854;2023-07-31T03:55:38;1.70;;;1.70;;
19741;SDS011;10028;48.822;11.854;2023-07-31T03:58:05;1.60;;;1.60;;
19741;SDS011;10028;48.822;11.854;2023-07-31T04:00:32;1.60;;;1.60;;
19741;SDS011;10028;48.822;11.854;2023-07-31T04:02:59;1.80;;;1.80;;
19741;SDS011;10028;48.822;11.854;2023-07-31T04:05:27;1.57;;;1.57;;
19741;SDS011;10028;48.822;11.854;2023-07-31T04:07:54;1.90;;;1.90;;
19741;SDS011;10028;48.822;11.854;2023-07-31T04:10:21;1.40;;;1.40;;
19741;SDS011;10028;48.822;11.854;2023-07-31T04:12:49;1.83;;;1.83;;
19741;SDS011;10028;48.822;11.854;2023-07-31T04:15:16;1.90;;;1.90;;
19741;SDS011;10028;48.822;11.854;2023-07-31T04:17:43;1.60;;;1.60;;
19741;SDS011;10028;48.822;11.854;2023-07-31T04:20:10;1.50;;;1.50;;
19741;SDS011;10028;48.822;11.854;2023-07-31T04:22:37;1.70;;;1.70;;
19741;SDS011;10028;48.822;11.854;2023-07-31T04:25:05;1.50;;;1.50;;
19741;SDS011;10028;48.822;11.854;2023-07-31T04:27:32;1.67;;;1.67;;
19741;SDS011;10028;48.822;11.854;2023-07-31T04:29:59;1.73;;;1.73;;
19741;SDS011;10028;48.822;11.854;2023-07-31T04:32:27;1.57;;;1.57;;
19741;SDS011;10028;48.822;11.854;2023-07-31T04:34:55;1.83;;;1.83;;
19741;SDS011;10028;48.822;11.854;2023-07-31T04:37:22;1.60;;;1.60;;
19741;SDS011;10028;48.822;11.854;2023-07-31T04:39:49;1.60;;;1.60;;
19741;SDS011;10028;48.822;11.854;2023-07-31T04:42:17;1.47;;;1.47;;
19741;SDS011;10028;48.822;11.854;2023-07-31T04:44:44;1.70;;;1.70;;
19741;SDS011;10028;48.822;11.854;2023-07-31T04:47:11;1.27;;;1.27;;
19741;SDS011;10028;48.822;11.854;2023-07-31T04:49:39;1.67;;;1.67;;
19741;SDS011;10028;48.822;11.854;2023-07-31T04:52:06;1.83;;;1.83;;
19741;SDS011;10028;48.822;11.854;2023-07-31T04:54:33;1.60;;;1.60;;
19741;SDS011;10028;48.822;11.854;2023-07-31T04:57:00;1.57;;;1.57;;
19741;SDS011;10028;48.822;11.854;2023-07-31T04:59:27;1.60;;;1.60;;
19741;SDS011;10028;48.822;11.854;2023-07-31T05:01:55;1.70;;;1.70;;
19741;SDS011;10028;48.822;11.854;2023-07-31T05:04:22;1.77;;;1.77;;
19741;SDS011;10028;48.822;11.854;2023-07-31T05:06:49;1.73;;;1.73;;
19741;SDS011;10028;48.822;11.854;2023-07-31T05:09:16;1.50;;;1.50;;
19741;SDS011;10028;48.822;11.854;2023-07-31T05:11:44;2.17;;;2.13;;
19741;SDS011;10028;48.822;11.854;2023-07-31T05:14:12;1.60;;;1.60;;
19741;SDS011;10028;48.822;11.854;2023-07-31T05:16:39;1.47;;;1.47;;
19741;SDS011;10028;48.822;11.854;2023-07-31T05:19:06;1.63;;;1.63;;
19741;SDS011;10028;48.822;11.854;2023-07-31T05:21:34;1.70;;;1.70;;
19741;SDS011;10028;48.822;11.854;2023-07-31T05:24:01;1.70;;;1.70;;
19741;SDS011;10028;48.822;11.854;2023-07-31T05:26:28;1.50;;;1.50;;
19741;SDS011;10028;48.822;11.854;2023-07-31T05:28:55;1.60;;;1.60;;
19741;SDS011;10028;48.822;11.854;2023-07-31T05:31:24;1.70;;;1.70;;
19741;SDS011;10028;48.822;11.854;2023-07-31T05:33:52;1.57;;;1.57;;
19741;SDS011;10028;48.822;11.854;2023-07-31T05:36:19;1.67;;;1.67;;
19741;SDS011;10028;48.822;11.854;2023-07-31T05:38:46;1.47;;;1.47;;
19741;SDS011;10028;48.822;11.854;2023-07-31T05:41:14;1.40;;;1.40;;
19741;SDS011;10028;48.822;11.854;2023-07-31T05:43:41;1.70;;;1.70;;
19741;SDS011;10028;48.822;11.854;2023-07-31T05:46:09;1.70;;;1.70;;
19741;SDS011;10028;48.822;11.854;2023-07-31T05:48:38;1.50;;;1.50;;
19741;SDS011;10028;48.822;11.854;2023-07-31T05:51:05;1.30;;;1.30;;
19741;SDS011;10028;48.822;11.854;2023-07-31T05:53:33;2.17;;;2.13;;
19741;SDS011;10028;48.822;11.854;2023-07-31T05:56:02;1.73;;;1.73;;
19741;SDS011;10028;48.822;11.854;2023-07-31T05:58:29;1.80;;;1.80;;
19741;SDS011;10028;48.822;11.854;2023-07-31T06:00:56;1.57;;;1.57;;
19741;SDS011;10028;48.822;11.854;2023-07-31T06:03:24;1.50;;;1.50;;
19741;SDS011;10028;48.822;11.854;2023-07-31T06:05:51;1.67;;;1.67;;
19741;SDS011;10028;48.822;11.854;2023-07-31T06:08:18;1.60;;;1.60;;
19741;SDS011;10028;48.822;11.854;2023-07-31T06:10:45;1.40;;;1.40;;
19741;SDS011;10028;48.822;11.854;2023-07-31T06:13:13;1.53;;;1.53;;
19741;SDS011;10028;48.822;11.854;2023-07-31T06:15:40;1.57;;;1.57;;
19741;SDS011;10028;48.822;11.854;2023-07-31T06:18:07;1.50;;;1.50;;
19741;SDS011;10028;48.822;11.854;2023-07-31T06:20:35;1.50;;;1.50;;
19741;SDS011;10028;48.822;11.854;2023-07-31T06:23:02;1.20;;;1.20;;
19741;SDS011;10028;48.822;11.854;2023-07-31T06:25:30;1.47;;;1.47;;
19741;SDS011;10028;48.822;11.854;2023-07-31T06:27:57;1.90;;;1.90;;
19741;SDS011;10028;48.822;11.854;2023-07-31T06:30:24;1.50;;;1.50;;
19741;SDS011;10028;48.822;11.854;2023-07-31T06:32:52;1.40;;;1.40;;
19741;SDS011;10028;48.822;11.854;2023-07-31T06:35:19;1.47;;;1.47;;
19741;SDS011;10028;48.822;11.854;2023-07-31T06:37:46;1.50;;;1.50;;
19741;SDS011;10028;48.822;11.854;2023-07-31T06:40:13;1.47;;;1.47;;
19741;SDS011;10028;48.822;11.854;2023-07-31T06:42:41;1.57;;;1.57;;
19741;SDS011;10028;48.822;11.854;2023-07-31T06:45:08;1.43;;;1.43;;
19741;SDS011;10028;48.822;11.854;2023-07-31T06:47:35;2.00;;;2.00;;
19741;SDS011;10028;48.822;11.854;2023-07-31T06:50:03;1.30;;;1.30;;
19741;SDS011;10028;48.822;11.854;2023-07-31T06:52:30;1.43;;;1.43;;
19741;SDS011;10028;48.822;11.854;2023-07-31T06:55:14;1.90;;;1.90;;
19741;SDS011;10028;48.822;11.854;2023-07-31T06:57:46;1.93;;;1.93;;
19741;SDS011;10028;48.822;11.854;2023-07-31T07:00:14;1.50;;;1.50;;
19741;SDS011;10028;48.822;11.854;2023-07-31T07:02:41;1.20;;;1.20;;
19741;SDS011;10028;48.822;11.854;2023-07-31T07:05:09;1.33;;;1.33;;
19741;SDS011;10028;48.822;11.854;2023-07-31T07:07:36;1.90;;;1.90;;
19741;SDS011;10028;48.822;11.854;2023-07-31T07:10:03;1.30;;;1.30;;
19741;SDS011;10028;48.822;11.854;2023-07-31T07:12:31;1.43;;;1.43;;
19741;SDS011;10028;48.822;11.854;2023-07-31T07:14:59;1.30;;;1.30;;
19741;SDS011;10028;48.822;11.854;2023-07-31T07:17:27;1.23;;;1.23;;
19741;SDS011;10028;48.822;11.854;2023-07-31T07:19:57;1.30;;;1.30;;
19741;SDS011;10028;48.822;11.854;2023-07-31T07:22:25;1.50;;;1.50;;
19741;SDS011;10028;48.822;11.854;2023-07-31T07:24:53;1.40;;;1.40;;
19741;SDS011;10028;48.822;11.854;2023-07-31T07:27:21;1.40;;;1.40;;
19741;SDS011;10028;48.822;11.854;2023-07-31T07:29:49;1.50;;;1.50;;
19741;SDS011;10028;48.822;11.854;2023-07-31T07:32:18;1.53;;;1.53;;
19741;SDS011;10028;48.822;11.854;2023-07-31T07:34:47;1.20;;;1.20;;
19741;SDS011;10028;48.822;11.854;2023-07-31T07:37:15;1.20;;;1.20;;
19741;SDS011;10028;48.822;11.854;2023-07-31T07:39:42;1.73;;;1.73;;
19741;SDS011;10028;48.822;11.854;2023-07-31T07:42:10;1.60;;;1.60;;
19741;SDS011;10028;48.822;11.854;2023-07-31T07:44:37;1.33;;;1.33;;
19741;SDS011;10028;48.822;11.854;2023-07-31T07:47:04;1.40;;;1.40;;
19741;SDS011;10028;48.822;11.854;2023-07-31T07:49:35;1.67;;;1.67;;
19741;SDS011;10028;48.822;11.854;2023-07-31T07:52:02;1.47;;;1.47;;
19741;SDS011;10028;48.822;11.854;2023-07-31T07:54:31;1.60;;;1.60;;
19741;SDS011;10028;48.822;11.854;2023-07-31T07:56:58;1.40;;;1.40;;
19741;SDS011;10028;48.822;11.854;2023-07-31T07:59:26;1.27;;;1.27;;
19741;SDS011;10028;48.822;11.854;2023-07-31T08:01:53;1.27;;;1.27;;
19741;SDS011;10028;48.822;11.854;2023-07-31T08:04:20;1.30;;;1.30;;
19741;SDS011;10028;48.822;11.854;2023-07-31T08:06:47;1.20;;;1.20;;
19741;SDS011;10028;48.822;11.854;2023-07-31T08:09:14;1.13;;;1.13;;
19741;SDS011;10028;48.822;11.854;2023-07-31T08:11:42;1.20;;;1.20;;
19741;SDS011;10028;48.822;11.854;2023-07-31T08:14:09;1.13;;;1.13;;
19741;SDS011;10028;48.822;11.854;2023-07-31T08:16:36;1.20;;;1.20;;
19741;SDS011;10028;48.822;11.854;2023-07-31T08:19:04;1.43;;;1.43;;
19741;SDS011;10028;48.822;11.854;2023-07-31T08:21:32;1.50;;;1.50;;
19741;SDS011;10028;48.822;11.854;2023-07-31T08:23:59;1.40;;;1.40;;
19741;SDS011;10028;48.822;11.854;2023-07-31T08:26:26;1.30;;;1.30;;
19741;SDS011;10028;48.822;11.854;2023-07-31T08:28:54;1.50;;;1.50;;
19741;SDS011;10028;48.822;11.854;2023-07-31T08:31:21;1.70;;;1.70;;
19741;SDS011;10028;48.822;11.854;2023-07-31T08:33:48;1.20;;;1.20;;
19741;SDS011;10028;48.822;11.854;2023-07-31T08:36:16;1.30;;;1.30;;
19741;SDS011;10028;48.822;11.854;2023-07-31T08:38:45;1.30;;;1.30;;
19741;SDS011;10028;48.822;11.854;2023-07-31T08:41:12;1.33;;;1.33;;
19741;SDS011;10028;48.822;11.854;2023-07-31T08:43:44;1.40;;;1.40;;
19741;SDS011;10028;48.822;11.854;2023-07-31T08:46:12;1.33;;;1.33;;
19741;SDS011;10028;48.822;11.854;2023-07-31T08:48:41;1.20;;;1.20;;
19741;SDS011;10028;48.822;11.854;2023-07-31T08:51:19;1.80;;;1.70;;
19741;SDS011;10028;48.822;11.854;2023-07-31T08:53:46;1.60;;;1.60;;
19741;SDS011;10028;48.822;11.854;2023-07-31T08:56:13;1.37;;;1.37;;
19741;SDS011;10028;48.822;11.854;2023-07-31T08:58:43;1.30;;;1.30;;
19741;SDS011;10028;48.822;11.854;2023-07-31T09:01:11;1.30;;;1.30;;
19741;SDS011;10028;48.822;11.854;2023-07-31T09:03:39;1.93;;;1.83;;
19741;SDS011;10028;48.822;11.854;2023-07-31T09:06:08;1.20;;;1.20;;
19741;SDS011;10028;48.822;11.854;2023-07-31T09:08:36;1.30;;;1.30;;
19741;SDS011;10028;48.822;11.854;2023-07-31T09:11:07;1.30;;;1.30;;
19741;SDS011;10028;48.822;11.854;2023-07-31T09:13:35;1.43;;;1.43;;
19741;SDS011;10028;48.822;11.854;2023-07-31T09:16:02;1.70;;;1.70;;
19741;SDS011;10028;48.822;11.854;2023-07-31T09:18:29;1.20;;;1.20;;
19741;SDS011;10028;48.822;11.854;2023-07-31T09:21:06;1.10;;;1.10;;
19741;SDS011;10028;48.822;11.854;2023-07-31T09:23:43;1.60;;;1.60;;
19741;SDS011;10028;48.822;11.854;2023-07-31T09:26:11;1.33;;;1.33;;
19741;SDS011;10028;48.822;11.854;2023-07-31T09:28:39;1.20;;;1.20;;
19741;SDS011;10028;48.822;11.854;2023-07-31T09:31:06;1.10;;;1.10;;
19741;SDS011;10028;48.822;11.854;2023-07-31T09:33:33;1.00;;;1.00;;
19741;SDS011;10028;48.822;11.854;2023-07-31T09:36:20;1.30;;;1.30;;
19741;SDS011;10028;48.822;11.854;2023-07-31T09:38:47;1.43;;;1.43;;
19741;SDS011;10028;48.822;11.854;2023-07-31T09:41:15;1.33;;;1.33;;
19741;SDS011;10028;48.822;11.854;2023-07-31T09:43:42;1.33;;;1.33;;
19741;SDS011;10028;48.822;11.854;2023-07-31T09:46:20;1.17;;;1.17;;
19741;SDS011;10028;48.822;11.854;2023-07-31T09:48:47;1.20;;;1.20;;
19741;SDS011;10028;48.822;11.854;2023-07-31T09:51:15;1.37;;;1.37;;
19741;SDS011;10028;48.822;11.854;2023-07-31T09:53:43;1.00;;;1.00;;
19741;SDS011;10028;48.822;11.854;2023-07-31T09:56:17;1.30;;;1.30;;
19741;SDS011;10028;48.822;11.854;2023-07-31T09:58:47;1.40;;;1.40;;
19741;SDS011;10028;48.822;11.854;2023-07-31T10:01:15;1.30;;;1.30;;
19741;SDS011;10028;48.822;11.854;2023-07-31T10:03:45;0.93;;;0.93;;
19741;SDS011;10028;48.822;11.854;2023-07-31T10:06:12;1.00;;;1.00;;
19741;SDS011;10028;48.822;11.854;2023-07-31T10:08:42;1.13;;;1.13;;
19741;SDS011;10028;48.822;11.854;2023-07-31T10:11:10;1.07;;;1.07;;
19741;SDS011;10028;48.822;11.854;2023-07-31T10:13:37;1.37;;;1.37;;
19741;SDS011;10028;48.822;11.854;2023-07-31T10:16:05;1.40;;;1.40;;
19741;SDS011;10028;48.822;11.854;2023-07-31T10:18:32;1.30;;;1.30;;
19741;SDS011;10028;48.822;11.854;2023-07-31T10:21:01;1.00;;;1.00;;
19741;SDS011;10028;48.822;11.854;2023-07-31T10:23:29;1.27;;;1.27;;
19741;SDS011;10028;48.822;11.854;2023-07-31T10:25:56;1.50;;;1.50;;
19741;SDS011;10028;48.822;11.854;2023-07-31T10:28:25;1.13;;;1.13;;
19741;SDS011;10028;48.822;11.854;2023-07-31T10:30:53;1.10;;;1.10;;
19741;SDS011;10028;48.822;11.854;2023-07-31T10:33:20;1.83;;;1.83;;
19741;SDS011;10028;48.822;11.854;2023-07-31T10:35:49;1.20;;;1.20;;
19741;SDS011;10028;48.822;11.854;2023-07-31T10:38:19;1.00;;;1.00;;
19741;SDS011;10028;48.822;11.854;2023-07-31T10:40:47;1.10;;;1.10;;
19741;SDS011;10028;48.822;11.854;2023-07-31T10:43:25;1.10;;;1.10;;
19741;SDS011;10028;48.822;11.854;2023-07-31T10:45:53;0.87;;;0.87;;
19741;SDS011;10028;48.822;11.854;2023-07-31T10:48:21;1.10;;;1.10;;
19741;SDS011;10028;48.822;11.854;2023-07-31T10:50:50;1.00;;;1.00;;
19741;SDS011;10028;48.822;11.854;2023-07-31T10:53:23;1.23;;;1.23;;
19741;SDS011;10028;48.822;11.854;2023-07-31T10:55:59;1.00;;;1.00;;
19741;SDS011;10028;48.822;11.854;2023-07-31T10:58:31;1.03;;;1.03;;
19741;SDS011;10028;48.822;11.854;2023-07-31T11:01:00;1.10;;;1.10;;
19741;SDS011;10028;48.822;11.854;2023-07-31T11:03:48;1.00;;;1.00;;
19741;SDS011;10028;48.822;11.854;2023-07-31T11:06:19;1.00;;;1.00;;
19741;SDS011;10028;48.822;11.854;2023-07-31T11:08:48;1.10;;;1.10;;
19741;SDS011;10028;48.822;11.854;2023-07-31T11:11:18;1.03;;;1.03;;
19741;SDS011;10028;48.822;11.854;2023-07-31T11:13:46;1.30;;;1.30;;
19741;SDS011;10028;48.822;11.854;2023-07-31T11:16:21;0.90;;;0.90;;
19741;SDS011;10028;48.822;11.854;2023-07-31T11:18:49;1.30;;;1.27;;
19741;SDS011;10028;48.822;11.854;2023-07-31T11:21:19;1.00;;;1.00;;
19741;SDS011;10028;48.822;11.854;2023-07-31T11:23:53;1.20;;;1.20;;
19741;SDS011;10028;48.822;11.854;2023-07-31T11:26:24;0.80;;;0.80;;
19741;SDS011;10028;48.822;11.854;2023-07-31T11:28:51;0.77;;;0.77;;
19741;SDS011;10028;48.822;11.854;2023-07-31T11:31:19;1.10;;;1.10;;
19741;SDS011;10028;48.822;11.854;2023-07-31T11:33:47;1.60;;;1.57;;
19741;SDS011;10028;48.822;11.854;2023-07-31T11:36:17;1.03;;;1.03;;
19741;SDS011;10028;48.822;11.854;2023-07-31T11:38:46;1.00;;;1.00;;
19741;SDS011;10028;48.822;11.854;2023-07-31T11:41:15;1.07;;;1.07;;
19741;SDS011;10028;48.822;11.854;2023-07-31T11:43:43;1.13;;;1.13;;
19741;SDS011;10028;48.822;11.854;2023-07-31T11:46:10;1.13;;;1.13;;
19741;SDS011;10028;48.822;11.854;2023-07-31T11:48:38;1.30;;;1.30;;
19741;SDS011;10028;48.822;11.854;2023-07-31T11:51:05;0.90;;;0.90;;
19741;SDS011;10028;48.822;11.854;2023-07-31T11:53:36;1.10;;;1.10;;
19741;SDS011;10028;48.822;11.854;2023-07-31T11:56:16;1.53;;;1.43;;
19741;SDS011;10028;48.822;11.854;2023-07-31T11:58:48;1.10;;;1.10;;
19741;SDS011;10028;48.822;11.854;2023-07-31T12:01:18;1.20;;;1.20;;
19741;SDS011;10028;48.822;11.854;2023-07-31T12:03:47;1.30;;;1.30;;
19741;SDS011;10028;48.822;11.854;2023-07-31T12:06:16;1.97;;;1.87;;
19741;SDS011;10028;48.822;11.854;2023-07-31T12:08:43;0.90;;;0.90;;
19741;SDS011;10028;48.822;11.854;2023-07-31T12:11:10;0.90;;;0.90;;
19741;SDS011;10028;48.822;11.854;2023-07-31T12:13:37;1.10;;;1.10;;
19741;SDS011;10028;48.822;11.854;2023-07-31T12:16:05;0.70;;;0.70;;
19741;SDS011;10028;48.822;11.854;2023-07-31T12:18:33;0.90;;;0.90;;
19741;SDS011;10028;48.822;11.854;2023-07-31T12:21:03;1.20;;;1.20;;
19741;SDS011;10028;48.822;11.854;2023-07-31T12:23:32;0.83;;;0.83;;
19741;SDS011;10028;48.822;11.854;2023-07-31T12:26:01;0.93;;;0.93;;
19741;SDS011;10028;48.822;11.854;2023-07-31T12:28:44;0.90;;;0.90;;
19741;SDS011;10028;48.822;11.854;2023-07-31T12:31:16;1.10;;;1.10;;
19741;SDS011;10028;48.822;11.854;2023-07-31T12:33:46;0.93;;;0.93;;
19741;SDS011;10028;48.822;11.854;2023-07-31T12:36:17;0.70;;;0.70;;
19741;SDS011;10028;48.822;11.854;2023-07-31T12:38:47;0.87;;;0.87;;
19741;SDS011;10028;48.822;11.854;2023-07-31T12:41:15;1.33;;;1.33;;
19741;SDS011;10028;48.822;11.854;2023-07-31T12:43:43;0.90;;;0.90;;
19741;SDS011;10028;48.822;11.854;2023-07-31T12:46:10;0.87;;;0.87;;
19741;SDS011;10028;48.822;11.854;2023-07-31T12:48:39;1.07;;;1.07;;
19741;SDS011;10028;48.822;11.854;2023-07-31T12:51:06;0.90;;;0.90;;
19741;SDS011;10028;48.822;11.854;2023-07-31T12:53:34;1.17;;;1.17;;
19741;SDS011;10028;48.822;11.854;2023-07-31T12:56:03;0.93;;;0.93;;
19741;SDS011;10028;48.822;11.854;2023-07-31T12:58:30;0.87;;;0.87;;
19741;SDS011;10028;48.822;11.854;2023-07-31T13:00:58;0.90;;;0.90;;
19741;SDS011;10028;48.822;11.854;2023-07-31T13:03:25;1.10;;;1.10;;
19741;SDS011;10028;48.822;11.854;2023-07-31T13:05:53;0.80;;;0.80;;
19741;SDS011;10028;48.822;11.854;2023-07-31T13:08:20;0.90;;;0.90;;
19741;SDS011;10028;48.822;11.854;2023-07-31T13:10:47;1.20;;;1.20;;
19741;SDS011;10028;48.822;11.854;2023-07-31T13:13:15;0.80;;;0.80;;
19741;SDS011;10028;48.822;11.854;2023-07-31T13:15:43;0.83;;;0.83;;
19741;SDS011;10028;48.822;11.854;2023-07-31T13:18:10;0.90;;;0.90;;
19741;SDS011;10028;48.822;11.854;2023-07-31T13:20:37;1.40;;;1.40;;
19741;SDS011;10028;48.822;11.854;2023-07-31T13:23:04;0.80;;;0.80;;
19741;SDS011;10028;48.822;11.854;2023-07-31T13:25:32;1.30;;;1.30;;
19741;SDS011;10028;48.822;11.854;2023-07-31T13:27:59;1.03;;;1.03;;
19741;SDS011;10028;48.822;11.854;2023-07-31T13:30:29;0.90;;;0.90;;
19741;SDS011;10028;48.822;11.854;2023-07-31T13:32:56;0.90;;;0.90;;
19741;SDS011;10028;48.822;11.854;2023-07-31T13:35:23;0.90;;;0.90;;
19741;SDS011;10028;48.822;11.854;2023-07-31T13:37:51;0.80;;;0.80;;
19741;SDS011;10028;48.822;11.854;2023-07-31T13:40:18;0.93;;;0.93;;
19741;SDS011;10028;48.822;11.854;2023-07-31T13:42:45;1.10;;;1.10;;
19741;SDS011;10028;48.822;11.854;2023-07-31T13:45:14;0.90;;;0.90;;
19741;SDS011;10028;48.822;11.854;2023-07-31T13:47:41;0.80;;;0.80;;
19741;SDS011;10028;48.822;11.854;2023-07-31T13:50:08;0.70;;;0.70;;
19741;SDS011;10028;48.822;11.854;2023-07-31T13:52:36;0.83;;;0.83;;
19741;SDS011;10028;48.822;11.854;2023-07-31T13:55:03;0.80;;;0.80;;
19741;SDS011;10028;48.822;11.854;2023-07-31T13:57:30;1.47;;;1.47;;
19741;SDS011;10028;48.822;11.854;2023-07-31T13:59:57;0.80;;;0.80;;
19741;SDS011;10028;48.822;11.854;2023-07-31T14:02:25;0.93;;;0.93;;
19741;SDS011;10028;48.822;11.854;2023-07-31T14:04:52;0.70;;;0.70;;
19741;SDS011;10028;48.822;11.854;2023-07-31T14:07:19;0.90;;;0.90;;
19741;SDS011;10028;48.822;11.854;2023-07-31T14:09:46;0.90;;;0.90;;
19741;SDS011;10028;48.822;11.854;2023-07-31T14:12:14;1.27;;;1.27;;
19741;SDS011;10028;48.822;11.854;2023-07-31T14:15:01;0.90;;;0.90;;
19741;SDS011;10028;48.822;11.854;2023-07-31T14:17:29;0.80;;;0.80;;
19741;SDS011;10028;48.822;11.854;2023-07-31T14:19:56;1.03;;;1.03;;
19741;SDS011;10028;48.822;11.854;2023-07-31T14:22:30;0.90;;;0.90;;
19741;SDS011;10028;48.822;11.854;2023-07-31T14:25:00;0.80;;;0.80;;
19741;SDS011;10028;48.822;11.854;2023-07-31T14:27:27;1.00;;;1.00;;
19741;SDS011;10028;48.822;11.854;2023-07-31T14:29:54;0.90;;;0.90;;
19741;SDS011;10028;48.822;11.854;2023-07-31T14:32:22;1.07;;;1.07;;
19741;SDS011;10028;48.822;11.854;2023-07-31T14:34:52;0.70;;;0.70;;
19741;SDS011;10028;48.822;11.854;2023-07-31T14:37:19;1.10;;;1.10;;
19741;SDS011;10028;48.822;11.854;2023-07-31T14:39:46;0.70;;;0.70;;
19741;SDS011;10028;48.822;11.854;2023-07-31T14:42:13;0.60;;;0.60;;
19741;SDS011;10028;48.822;11.854;2023-07-31T14:44:42;0.80;;;0.80;;
19741;SDS011;10028;48.822;11.854;2023-07-31T14:47:10;0.80;;;0.80;;
19741;SDS011;10028;48.822;11.854;2023-07-31T14:49:37;0.80;;;0.80;;